createdAt,value
2022-07-25T00:04:01.760Z,19.45
2022-07-25T00:05:01.779Z,19.40
2022-07-25T00:07:05.697Z,19.29
2022-07-25T00:08:05.682Z,19.34
2022-07-25T00:10:09.697Z,19.37
2022-07-25T00:11:09.683Z,19.18
2022-07-25T00:13:13.727Z,19.24
2022-07-25T00:14:13.718Z,19.21
2022-07-25T00:16:17.822Z,19.29
2022-07-25T00:17:17.735Z,19.15
2022-07-25T00:19:10.698Z,19.24
2022-07-25T00:20:10.693Z,19.12
2022-07-25T00:22:03.631Z,19.14
2022-07-25T00:23:03.622Z,19.15
2022-07-25T00:24:56.575Z,19.16
2022-07-25T00:25:56.570Z,19.15
2022-07-25T00:27:49.678Z,19.14
2022-07-25T00:28:49.677Z,19.27
2022-07-25T00:30:42.788Z,19.36
2022-07-25T00:31:42.857Z,19.44
2022-07-25T00:33:35.911Z,19.62
2022-07-25T00:34:35.903Z,19.66
2022-07-25T00:36:29.024Z,19.70
2022-07-25T00:37:29.011Z,19.74
2022-07-25T00:39:21.926Z,19.82
2022-07-25T00:40:21.919Z,19.70
2022-07-25T00:41:21.923Z,19.70
2022-07-25T00:42:21.918Z,19.69
2022-07-25T00:43:21.915Z,19.64
2022-07-25T00:44:21.913Z,19.67
2022-07-25T00:45:21.921Z,19.77
2022-07-25T00:46:21.972Z,19.74
2022-07-25T00:47:21.907Z,19.67
2022-07-25T00:48:21.906Z,19.76
2022-07-25T00:49:21.906Z,19.67
2022-07-25T00:50:21.910Z,19.66
2022-07-25T00:51:21.902Z,19.66
2022-07-25T00:52:21.900Z,19.62
2022-07-25T00:53:21.898Z,19.66
2022-07-25T00:54:21.905Z,19.66
2022-07-25T00:55:21.896Z,19.67
2022-07-25T00:56:21.894Z,19.70
2022-07-25T00:57:21.907Z,19.62
2022-07-25T00:58:21.892Z,19.67
2022-07-25T00:59:21.889Z,19.64
2022-07-25T01:00:21.888Z,19.62
2022-07-25T01:01:21.924Z,19.59
2022-07-25T01:02:21.924Z,19.55
2022-07-25T01:03:21.881Z,19.52
2022-07-25T01:04:21.887Z,19.45
2022-07-25T01:05:21.881Z,19.47
2022-07-25T01:06:21.883Z,19.34
2022-07-25T01:07:21.875Z,19.30
2022-07-25T01:08:21.876Z,19.33
2022-07-25T01:09:21.882Z,19.39
2022-07-25T01:10:21.871Z,19.41
2022-07-25T01:11:21.868Z,19.39
2022-07-25T01:12:21.874Z,19.49
2022-07-25T01:13:21.859Z,19.54
2022-07-25T01:14:21.865Z,19.56
2022-07-25T01:15:21.861Z,19.51
2022-07-25T01:16:21.909Z,19.58
2022-07-25T01:17:21.860Z,19.59
2022-07-25T01:18:21.859Z,19.52
2022-07-25T01:19:21.853Z,19.55
2022-07-25T01:20:21.862Z,19.55
2022-07-25T01:21:21.854Z,19.58
2022-07-25T01:22:21.856Z,19.52
2022-07-25T01:23:21.852Z,19.54
2022-07-25T01:24:21.855Z,19.59
2022-07-25T01:25:21.846Z,19.66
2022-07-25T01:26:21.842Z,19.67
2022-07-25T01:27:21.843Z,19.74
2022-07-25T01:28:21.840Z,19.67
2022-07-25T01:29:21.841Z,19.67
2022-07-25T01:30:21.838Z,19.56
2022-07-25T01:31:21.903Z,19.55
2022-07-25T01:32:21.834Z,19.63
2022-07-25T01:33:21.834Z,19.58
2022-07-25T01:34:21.832Z,19.55
2022-07-25T01:35:21.828Z,19.54
2022-07-25T01:36:21.838Z,19.55
2022-07-25T01:37:21.821Z,19.55
2022-07-25T01:38:21.825Z,19.62
2022-07-25T01:39:21.821Z,19.45
2022-07-25T01:40:21.818Z,19.51
2022-07-25T01:41:22.472Z,19.45
2022-07-25T01:42:21.818Z,19.54
2022-07-25T01:43:21.924Z,19.59
2022-07-25T01:44:21.827Z,19.51
2022-07-25T01:45:21.814Z,19.56
2022-07-25T01:46:21.927Z,19.52
2022-07-25T01:47:21.811Z,19.44
2022-07-25T01:48:21.803Z,19.48
2022-07-25T01:49:21.805Z,19.47
2022-07-25T01:50:21.803Z,19.55
2022-07-25T01:51:21.803Z,19.54
2022-07-25T01:52:21.800Z,19.51
2022-07-25T01:53:21.802Z,19.63
2022-07-25T01:54:21.797Z,19.52
2022-07-25T01:55:21.799Z,19.54
2022-07-25T01:56:22.462Z,19.59
2022-07-25T01:57:21.790Z,19.62
2022-07-25T01:58:21.791Z,19.56
2022-07-25T01:59:21.793Z,19.58
2022-07-25T02:00:21.782Z,19.54
2022-07-25T02:01:22.188Z,19.48
2022-07-25T02:02:21.784Z,19.56
2022-07-25T02:03:21.804Z,19.55
2022-07-25T02:04:21.808Z,19.55
2022-07-25T02:05:21.785Z,19.56
2022-07-25T02:08:32.610Z,19.52
2022-07-25T02:08:53.424Z,19.54
2022-07-25T02:10:57.447Z,19.56
2022-07-25T02:11:57.425Z,19.52
2022-07-25T02:13:50.354Z,19.52
2022-07-25T02:14:50.346Z,19.51
2022-07-25T02:17:05.531Z,19.37
2022-07-25T02:18:05.418Z,19.44
2022-07-25T02:20:09.450Z,19.40
2022-07-25T02:21:14.124Z,19.33
2022-07-25T02:23:02.558Z,19.33
2022-07-25T02:24:02.938Z,19.37
2022-07-25T02:26:06.560Z,19.19
2022-07-25T02:27:06.539Z,19.22
2022-07-25T02:28:59.456Z,19.33
2022-07-25T02:29:59.449Z,19.19
2022-07-25T02:32:03.475Z,19.30
2022-07-25T02:33:03.462Z,19.26
2022-07-25T02:34:56.394Z,19.22
2022-07-25T02:35:56.389Z,19.15
2022-07-25T02:37:49.521Z,19.24
2022-07-25T02:38:49.511Z,19.33
2022-07-25T02:40:42.622Z,19.29
2022-07-25T02:41:42.610Z,19.19
2022-07-25T02:43:35.572Z,19.26
2022-07-25T02:44:35.564Z,19.18
2022-07-25T02:45:35.598Z,19.18
2022-07-25T02:46:35.613Z,19.27
2022-07-25T02:47:35.559Z,19.21
2022-07-25T02:48:35.618Z,19.22
2022-07-25T02:49:35.557Z,19.18
2022-07-25T02:50:35.557Z,19.19
2022-07-25T02:51:35.549Z,19.14
2022-07-25T02:52:35.551Z,19.26
2022-07-25T02:53:55.931Z,19.19
2022-07-25T02:54:35.548Z,19.19
2022-07-25T02:55:35.544Z,19.11
2022-07-25T02:56:35.544Z,19.12
2022-07-25T02:57:35.539Z,19.11
2022-07-25T02:58:35.537Z,19.11
2022-07-25T02:59:35.537Z,19.12
2022-07-25T03:00:35.536Z,19.07
2022-07-25T03:01:35.593Z,19.08
2022-07-25T03:02:35.529Z,19.07
2022-07-25T03:03:35.555Z,19.07
2022-07-25T03:04:35.580Z,18.95
2022-07-25T03:05:35.524Z,19.00
2022-07-25T03:06:35.526Z,18.99
2022-07-25T03:07:35.517Z,19.02
2022-07-25T03:08:35.520Z,18.99
2022-07-25T03:09:35.521Z,18.93
2022-07-25T03:10:35.516Z,18.93
2022-07-25T03:11:35.509Z,18.95
2022-07-25T03:12:35.512Z,18.92
2022-07-25T03:13:35.504Z,18.92
2022-07-25T03:14:35.504Z,19.00
2022-07-25T03:15:35.503Z,18.88
2022-07-25T03:16:35.557Z,19.02
2022-07-25T03:17:35.500Z,19.00
2022-07-25T03:18:35.509Z,18.95
2022-07-25T03:19:35.495Z,18.93
2022-07-25T03:20:35.495Z,19.04
2022-07-25T03:21:35.493Z,18.93
2022-07-25T03:22:35.493Z,18.99
2022-07-25T03:23:35.487Z,19.00
2022-07-25T03:24:35.514Z,18.96
2022-07-25T03:25:35.481Z,18.95
2022-07-25T03:26:35.478Z,19.00
2022-07-25T03:27:35.477Z,18.96
2022-07-25T03:28:35.473Z,18.92
2022-07-25T03:29:35.483Z,18.84
2022-07-25T03:30:35.498Z,19.00
2022-07-25T03:31:35.516Z,18.88
2022-07-25T03:32:35.475Z,18.96
2022-07-25T03:33:35.465Z,18.92
2022-07-25T03:34:35.463Z,18.96
2022-07-25T03:35:35.467Z,18.95
2022-07-25T03:36:35.458Z,18.90
2022-07-25T03:37:35.456Z,18.96
2022-07-25T03:38:35.467Z,18.86
2022-07-25T03:39:35.451Z,18.84
2022-07-25T03:40:35.456Z,18.84
2022-07-25T03:41:35.447Z,18.81
2022-07-25T03:42:35.799Z,18.89
2022-07-25T03:43:35.449Z,18.86
2022-07-25T03:44:35.442Z,18.92
2022-07-25T03:45:35.489Z,18.93
2022-07-25T03:46:35.437Z,18.93
2022-07-25T03:47:35.431Z,18.89
2022-07-25T03:48:35.454Z,18.93
2022-07-25T03:49:35.431Z,19.00
2022-07-25T03:50:35.436Z,19.07
2022-07-25T03:51:35.426Z,19.04
2022-07-25T03:52:35.431Z,19.00
2022-07-25T03:53:35.425Z,19.00
2022-07-25T03:54:35.422Z,19.07
2022-07-25T03:55:35.424Z,18.98
2022-07-25T03:56:35.418Z,18.95
2022-07-25T03:57:35.414Z,19.08
2022-07-25T03:58:35.422Z,19.09
2022-07-25T03:59:35.417Z,19.22
2022-07-25T04:00:35.407Z,19.18
2022-07-25T04:01:35.479Z,19.36
2022-07-25T04:02:35.418Z,19.45
2022-07-25T04:03:35.407Z,19.55
2022-07-25T04:04:35.398Z,19.71
2022-07-25T04:05:35.401Z,19.89
2022-07-25T04:06:35.404Z,19.85
2022-07-25T04:07:35.394Z,19.85
2022-07-25T04:08:35.393Z,19.84
2022-07-25T04:09:35.395Z,19.85
2022-07-25T04:10:35.386Z,20.04
2022-07-25T04:11:35.385Z,20.29
2022-07-25T04:12:35.386Z,20.63
2022-07-25T04:13:35.386Z,21.11
2022-07-25T04:14:35.391Z,21.50
2022-07-25T04:15:35.377Z,21.58
2022-07-25T04:16:35.401Z,21.66
2022-07-25T04:17:35.378Z,21.45
2022-07-25T04:18:35.374Z,21.30
2022-07-25T04:19:35.371Z,21.29
2022-07-25T04:20:35.371Z,21.40
2022-07-25T04:21:35.368Z,21.39
2022-07-25T04:22:35.367Z,21.35
2022-07-25T04:23:35.362Z,21.33
2022-07-25T04:24:35.363Z,21.46
2022-07-25T04:25:35.359Z,21.54
2022-07-25T04:26:35.365Z,21.85
2022-07-25T04:27:35.358Z,22.33
2022-07-25T04:28:35.356Z,22.78
2022-07-25T04:29:35.361Z,23.12
2022-07-25T04:30:35.362Z,23.44
2022-07-25T04:31:35.400Z,23.71
2022-07-25T04:32:35.356Z,24.02
2022-07-25T04:33:35.345Z,24.33
2022-07-25T04:34:35.346Z,24.39
2022-07-25T04:35:35.347Z,24.58
2022-07-25T04:36:35.346Z,24.76
2022-07-25T04:37:35.346Z,24.76
2022-07-25T04:38:35.348Z,24.69
2022-07-25T04:39:35.340Z,24.95
2022-07-25T04:40:35.342Z,25.11
2022-07-25T04:41:35.355Z,25.29
2022-07-25T04:42:35.343Z,25.41
2022-07-25T04:43:35.341Z,25.59
2022-07-25T04:44:35.339Z,25.81
2022-07-25T04:45:35.374Z,26.00
2022-07-25T04:46:35.345Z,26.16
2022-07-25T04:47:35.332Z,26.37
2022-07-25T04:48:35.450Z,26.62
2022-07-25T04:49:35.337Z,26.83
2022-07-25T04:50:35.339Z,26.78
2022-07-25T04:51:35.338Z,26.75
2022-07-25T04:52:35.346Z,27.00
2022-07-25T04:53:35.336Z,27.45
2022-07-25T04:54:35.337Z,27.64
2022-07-25T04:55:35.342Z,27.93
2022-07-25T04:56:35.347Z,28.17
2022-07-25T04:57:35.336Z,28.52
2022-07-25T04:58:35.336Z,28.49
2022-07-25T04:59:35.340Z,28.66
2022-07-25T05:00:35.389Z,28.74
2022-07-25T05:01:35.500Z,28.88
2022-07-25T05:02:35.396Z,29.10
2022-07-25T05:03:35.338Z,29.31
2022-07-25T05:04:35.339Z,29.59
2022-07-25T05:05:35.342Z,29.82
2022-07-25T05:06:35.343Z,30.16
2022-07-25T05:07:35.346Z,30.32
2022-07-25T05:08:35.352Z,30.19
2022-07-25T05:09:35.344Z,30.35
2022-07-25T05:10:35.347Z,30.44
2022-07-25T05:11:35.347Z,30.50
2022-07-25T05:12:35.358Z,30.50
2022-07-25T05:13:35.350Z,30.47
2022-07-25T05:14:35.353Z,30.55
2022-07-25T05:15:35.350Z,30.37
2022-07-25T05:16:35.395Z,30.44
2022-07-25T05:17:35.356Z,30.70
2022-07-25T05:18:35.366Z,30.90
2022-07-25T05:19:35.356Z,30.83
2022-07-25T05:20:35.358Z,30.19
2022-07-25T05:21:35.363Z,30.27
2022-07-25T05:22:35.365Z,30.55
2022-07-25T05:23:35.367Z,30.81
2022-07-25T05:24:35.371Z,30.70
2022-07-25T05:25:35.372Z,30.70
2022-07-25T05:26:35.382Z,30.97
2022-07-25T05:27:35.382Z,30.96
2022-07-25T05:28:35.375Z,31.14
2022-07-25T05:29:35.379Z,30.97
2022-07-25T05:30:39.441Z,30.96
2022-07-25T05:31:35.441Z,31.47
2022-07-25T05:32:35.393Z,31.71
2022-07-25T05:33:35.388Z,31.90
2022-07-25T05:34:35.390Z,31.54
2022-07-25T05:35:35.393Z,31.55
2022-07-25T05:36:35.398Z,31.54
2022-07-25T05:37:35.400Z,31.74
2022-07-25T05:38:35.405Z,31.90
2022-07-25T05:39:35.397Z,32.12
2022-07-25T05:40:35.405Z,32.12
2022-07-25T05:41:35.402Z,31.99
2022-07-25T05:42:35.408Z,32.19
2022-07-25T05:43:35.413Z,32.27
2022-07-25T05:44:35.422Z,32.31
2022-07-25T05:45:35.417Z,32.34
2022-07-25T05:46:35.549Z,32.48
2022-07-25T05:47:35.423Z,32.71
2022-07-25T05:48:35.477Z,32.85
2022-07-25T05:49:35.433Z,32.89
2022-07-25T05:50:35.434Z,32.96
2022-07-25T05:51:35.436Z,33.02
2022-07-25T05:52:35.438Z,33.07
2022-07-25T05:53:35.445Z,32.74
2022-07-25T05:54:35.443Z,32.95
2022-07-25T05:55:35.459Z,33.02
2022-07-25T05:56:35.455Z,33.30
2022-07-25T05:57:35.463Z,33.39
2022-07-25T05:58:35.457Z,33.40
2022-07-25T05:59:35.460Z,33.46
2022-07-25T06:00:35.464Z,33.53
2022-07-25T06:01:35.516Z,33.80
2022-07-25T06:02:35.682Z,33.84
2022-07-25T06:03:35.473Z,33.65
2022-07-25T06:04:35.478Z,33.64
2022-07-25T06:05:35.482Z,33.73
2022-07-25T06:06:35.484Z,33.89
2022-07-25T06:07:35.486Z,33.79
2022-07-25T06:08:35.491Z,33.89
2022-07-25T06:09:35.495Z,34.05
2022-07-25T06:10:35.501Z,34.11
2022-07-25T06:11:35.501Z,34.24
2022-07-25T06:12:36.694Z,34.08
2022-07-25T06:13:35.511Z,34.32
2022-07-25T06:14:35.515Z,34.40
2022-07-25T06:15:35.518Z,34.51
2022-07-25T06:16:35.623Z,34.40
2022-07-25T06:17:35.539Z,34.29
2022-07-25T06:18:35.531Z,34.18
2022-07-25T06:19:35.536Z,34.24
2022-07-25T06:20:35.544Z,34.33
2022-07-25T06:21:35.548Z,34.47
2022-07-25T06:22:35.554Z,34.39
2022-07-25T06:23:35.556Z,34.30
2022-07-25T06:24:35.565Z,34.51
2022-07-25T06:25:35.563Z,34.60
2022-07-25T06:26:35.569Z,34.74
2022-07-25T06:27:35.570Z,34.96
2022-07-25T06:28:35.578Z,35.10
2022-07-25T06:29:35.610Z,35.31
2022-07-25T06:30:35.594Z,35.29
2022-07-25T06:31:35.670Z,35.23
2022-07-25T06:32:35.606Z,35.22
2022-07-25T06:33:35.605Z,35.48
2022-07-25T06:34:35.609Z,35.67
2022-07-25T06:35:35.614Z,36.00
2022-07-25T06:36:35.640Z,36.14
2022-07-25T06:37:35.622Z,36.16
2022-07-25T06:38:35.629Z,36.00
2022-07-25T06:39:35.639Z,35.67
2022-07-25T06:40:35.641Z,34.97
2022-07-25T06:41:35.646Z,35.11
2022-07-25T06:42:35.650Z,35.34
2022-07-25T06:43:35.658Z,35.51
2022-07-25T06:44:35.664Z,35.56
2022-07-25T06:45:35.669Z,35.42
2022-07-25T06:46:35.698Z,34.88
2022-07-25T06:47:36.232Z,35.00
2022-07-25T06:48:35.737Z,34.77
2022-07-25T06:49:35.713Z,35.17
2022-07-25T06:50:35.716Z,35.33
2022-07-25T06:51:35.708Z,35.67
2022-07-25T06:52:35.718Z,36.05
2022-07-25T06:53:35.728Z,35.98
2022-07-25T06:54:35.748Z,36.09
2022-07-25T06:55:35.736Z,36.17
2022-07-25T06:56:35.742Z,36.12
2022-07-25T06:57:35.750Z,36.49
2022-07-25T06:58:35.752Z,36.68
2022-07-25T06:59:35.760Z,36.98
2022-07-25T07:00:35.814Z,36.49
2022-07-25T07:01:35.779Z,35.85
2022-07-25T07:02:35.784Z,35.98
2022-07-25T07:03:35.827Z,35.80
2022-07-25T07:04:35.802Z,35.42
2022-07-25T07:05:35.802Z,35.73
2022-07-25T07:06:35.809Z,35.71
2022-07-25T07:07:35.820Z,36.12
2022-07-25T07:08:35.827Z,36.49
2022-07-25T07:09:35.830Z,36.81
2022-07-25T07:10:35.839Z,36.54
2022-07-25T07:11:35.847Z,36.84
2022-07-25T07:12:35.849Z,37.13
2022-07-25T07:13:35.920Z,37.36
2022-07-25T07:14:35.868Z,37.68
2022-07-25T07:15:35.878Z,37.90
2022-07-25T07:16:35.928Z,37.83
2022-07-25T07:17:35.895Z,38.05
2022-07-25T07:18:35.907Z,37.96
2022-07-25T07:19:35.904Z,37.78
2022-07-25T07:20:35.911Z,37.64
2022-07-25T07:21:35.919Z,37.78
2022-07-25T07:22:35.925Z,37.60
2022-07-25T07:23:35.932Z,37.25
2022-07-25T07:24:38.839Z,37.29
2022-07-25T07:25:35.968Z,37.07
2022-07-25T07:26:35.955Z,36.86
2022-07-25T07:27:35.965Z,36.64
2022-07-25T07:28:35.973Z,36.52
2022-07-25T07:29:35.978Z,36.54
2022-07-25T07:31:05.570Z,36.35
2022-07-25T07:31:36.073Z,36.77
2022-07-25T07:32:36.001Z,37.25
2022-07-25T07:33:36.008Z,37.06
2022-07-25T07:34:36.037Z,37.08
2022-07-25T07:35:36.107Z,37.20
2022-07-25T07:36:36.032Z,37.02
2022-07-25T07:37:40.146Z,36.96
2022-07-25T07:38:36.058Z,36.88
2022-07-25T07:39:36.060Z,36.96
2022-07-25T07:40:36.066Z,37.21
2022-07-25T07:41:36.076Z,37.45
2022-07-25T07:42:36.084Z,37.01
2022-07-25T07:43:36.089Z,36.73
2022-07-25T07:44:36.100Z,37.08
2022-07-25T07:45:36.105Z,37.20
2022-07-25T07:46:36.192Z,37.53
2022-07-25T07:47:36.131Z,37.80
2022-07-25T07:48:36.181Z,38.01
2022-07-25T07:49:36.873Z,38.21
2022-07-25T07:50:36.157Z,38.43
2022-07-25T07:51:36.158Z,38.45
2022-07-25T07:52:36.167Z,38.19
2022-07-25T07:53:36.177Z,38.12
2022-07-25T07:54:36.178Z,38.30
2022-07-25T07:55:36.187Z,38.26
2022-07-25T07:56:36.200Z,38.11
2022-07-25T07:57:36.207Z,38.36
2022-07-25T07:58:36.215Z,38.58
2022-07-25T07:59:36.221Z,38.39
2022-07-25T08:00:36.231Z,38.48
2022-07-25T08:01:36.259Z,38.79
2022-07-25T08:02:36.308Z,38.82
2022-07-25T08:03:36.252Z,38.92
2022-07-25T08:04:36.267Z,38.77
2022-07-25T08:05:36.279Z,38.54
2022-07-25T08:06:36.299Z,38.48
2022-07-25T08:07:36.291Z,38.65
2022-07-25T08:08:36.311Z,38.74
2022-07-25T08:09:36.312Z,38.61
2022-07-25T08:10:36.316Z,38.69
2022-07-25T08:11:36.327Z,38.67
2022-07-25T08:12:36.332Z,38.92
2022-07-25T08:13:36.338Z,38.99
2022-07-25T08:14:36.352Z,39.14
2022-07-25T08:15:36.388Z,39.40
2022-07-25T08:16:36.444Z,39.41
2022-07-25T08:17:36.376Z,39.33
2022-07-25T08:18:36.386Z,39.53
2022-07-25T08:19:36.393Z,39.52
2022-07-25T08:20:38.347Z,39.63
2022-07-25T08:21:36.411Z,39.74
2022-07-25T08:22:36.418Z,40.06
2022-07-25T08:23:36.428Z,39.86
2022-07-25T08:24:36.437Z,39.19
2022-07-25T08:25:36.445Z,38.79
2022-07-25T08:26:36.452Z,38.26
2022-07-25T08:27:36.460Z,38.14
2022-07-25T08:28:36.466Z,37.77
2022-07-25T08:29:36.473Z,37.65
2022-07-25T08:30:36.495Z,37.33
2022-07-25T08:31:36.606Z,36.58
2022-07-25T08:32:36.495Z,36.01
2022-07-25T08:33:36.507Z,35.68
2022-07-25T08:34:36.517Z,34.97
2022-07-25T08:35:36.517Z,34.30
2022-07-25T08:36:36.523Z,33.99
2022-07-25T08:37:36.532Z,33.84
2022-07-25T08:38:36.537Z,33.65
2022-07-25T08:39:36.544Z,33.36
2022-07-25T08:40:36.549Z,33.11
2022-07-25T08:41:36.554Z,32.85
2022-07-25T08:42:36.560Z,32.68
2022-07-25T08:43:36.566Z,32.31
2022-07-25T08:44:36.577Z,32.21
2022-07-25T08:45:36.577Z,32.14
2022-07-25T08:46:36.648Z,32.00
2022-07-25T08:47:36.588Z,31.92
2022-07-25T08:48:36.642Z,31.62
2022-07-25T08:49:36.601Z,31.55
2022-07-25T08:50:36.607Z,31.51
2022-07-25T08:51:36.609Z,31.52
2022-07-25T08:52:36.614Z,31.49
2022-07-25T08:53:36.667Z,31.47
2022-07-25T08:54:36.626Z,31.52
2022-07-25T08:55:36.632Z,31.74
2022-07-25T08:56:36.637Z,31.93
2022-07-25T08:57:36.638Z,32.01
2022-07-25T08:58:36.652Z,32.26
2022-07-25T08:59:36.654Z,32.67
2022-07-25T09:00:36.658Z,33.11
2022-07-25T09:01:36.737Z,33.43
2022-07-25T09:02:36.715Z,33.95
2022-07-25T09:03:36.697Z,34.21
2022-07-25T09:04:36.679Z,34.75
2022-07-25T09:05:37.017Z,34.75
2022-07-25T09:06:36.699Z,34.67
2022-07-25T09:07:36.696Z,34.80
2022-07-25T09:08:36.703Z,35.10
2022-07-25T09:09:36.711Z,34.92
2022-07-25T09:10:36.714Z,34.80
2022-07-25T09:11:36.720Z,34.48
2022-07-25T09:12:36.726Z,34.02
2022-07-25T09:13:36.735Z,33.58
2022-07-25T09:14:36.736Z,33.32
2022-07-25T09:15:36.811Z,33.05
2022-07-25T09:16:36.749Z,32.73
2022-07-25T09:17:36.755Z,32.40
2022-07-25T09:18:36.759Z,32.22
2022-07-25T09:19:36.759Z,31.97
2022-07-25T09:20:36.767Z,31.97
2022-07-25T09:21:36.769Z,31.87
2022-07-25T09:22:36.777Z,31.78
2022-07-25T09:23:36.778Z,31.73
2022-07-25T09:24:36.882Z,31.66
2022-07-25T09:25:36.793Z,31.56
2022-07-25T09:26:36.795Z,31.46
2022-07-25T09:27:36.795Z,31.46
2022-07-25T09:28:36.803Z,31.40
2022-07-25T09:29:36.806Z,31.39
2022-07-25T09:30:36.814Z,31.31
2022-07-25T09:31:36.888Z,31.31
2022-07-25T09:32:36.818Z,31.39
2022-07-25T09:33:36.825Z,31.27
2022-07-25T09:34:36.830Z,31.33
2022-07-25T09:35:36.831Z,31.31
2022-07-25T09:36:36.906Z,31.25
2022-07-25T09:37:36.841Z,31.10
2022-07-25T09:38:36.865Z,31.12
2022-07-25T09:39:38.739Z,31.06
2022-07-25T09:40:36.856Z,30.91
2022-07-25T09:41:36.860Z,30.83
2022-07-25T09:42:36.865Z,30.87
2022-07-25T09:43:36.867Z,30.85
2022-07-25T09:44:36.878Z,30.78
2022-07-25T09:45:36.877Z,30.88
2022-07-25T09:46:36.924Z,30.81
2022-07-25T09:47:36.891Z,30.97
2022-07-25T09:48:36.909Z,30.96
2022-07-25T09:49:36.890Z,30.91
2022-07-25T09:50:36.897Z,31.03
2022-07-25T09:51:36.901Z,31.07
2022-07-25T09:52:36.917Z,30.96
2022-07-25T09:53:36.908Z,30.88
2022-07-25T09:54:36.911Z,30.91
2022-07-25T09:55:36.922Z,30.91
2022-07-25T09:56:36.926Z,30.90
2022-07-25T09:57:36.934Z,30.90
2022-07-25T09:58:36.930Z,30.88
2022-07-25T09:59:36.932Z,30.84
2022-07-25T10:00:36.935Z,30.77
2022-07-25T10:01:37.027Z,30.68
2022-07-25T10:02:36.982Z,30.70
2022-07-25T10:03:36.947Z,30.81
2022-07-25T10:04:36.953Z,30.73
2022-07-25T10:05:36.955Z,30.72
2022-07-25T10:06:36.965Z,30.75
2022-07-25T10:07:36.960Z,30.80
2022-07-25T10:08:36.966Z,30.90
2022-07-25T10:09:36.966Z,30.84
2022-07-25T10:10:36.973Z,30.90
2022-07-25T10:11:36.976Z,30.85
2022-07-25T10:12:36.984Z,30.85
2022-07-25T10:13:36.987Z,30.85
2022-07-25T10:14:36.991Z,30.97
2022-07-25T10:15:36.997Z,31.07
2022-07-25T10:16:37.068Z,31.18
2022-07-25T10:17:36.999Z,31.27
2022-07-25T10:18:37.006Z,31.25
2022-07-25T10:19:37.009Z,31.27
2022-07-25T10:20:37.013Z,31.31
2022-07-25T10:21:37.019Z,31.42
2022-07-25T10:22:55.234Z,31.46
2022-07-25T10:23:37.030Z,31.56
2022-07-25T10:24:37.027Z,31.61
2022-07-25T10:25:37.032Z,31.71
2022-07-25T10:26:37.066Z,31.81
2022-07-25T10:27:37.042Z,31.81
2022-07-25T10:28:37.045Z,31.77
2022-07-25T10:29:37.049Z,31.62
2022-07-25T10:30:37.107Z,31.54
2022-07-25T10:31:37.054Z,31.42
2022-07-25T10:32:37.059Z,31.54
2022-07-25T10:33:37.067Z,31.42
2022-07-25T10:34:37.068Z,31.49
2022-07-25T10:35:37.075Z,31.49
2022-07-25T10:36:37.076Z,31.58
2022-07-25T10:37:37.080Z,31.51
2022-07-25T10:38:37.083Z,31.61
2022-07-25T10:39:37.098Z,31.78
2022-07-25T10:40:37.095Z,31.92
2022-07-25T10:41:37.094Z,32.00
2022-07-25T10:42:37.097Z,32.12
2022-07-25T10:43:37.101Z,32.27
2022-07-25T10:44:37.107Z,32.18
2022-07-25T10:45:38.482Z,32.22
2022-07-25T10:46:37.192Z,32.22
2022-07-25T10:47:37.128Z,32.23
2022-07-25T10:48:37.179Z,32.15
2022-07-25T10:49:37.512Z,32.19
2022-07-25T10:50:55.016Z,32.23
2022-07-25T10:51:41.600Z,32.22
2022-07-25T10:52:37.136Z,32.23
2022-07-25T10:53:37.145Z,32.29
2022-07-25T10:54:37.151Z,32.26
2022-07-25T10:55:37.164Z,32.30
2022-07-25T10:56:37.157Z,32.36
2022-07-25T10:57:49.588Z,32.41
2022-07-25T10:58:37.166Z,32.49
2022-07-25T10:59:37.164Z,32.43
2022-07-25T11:00:37.174Z,32.53
2022-07-25T11:01:37.213Z,32.43
2022-07-25T11:02:37.227Z,32.37
2022-07-25T11:03:37.199Z,32.49
2022-07-25T11:04:37.198Z,32.48
2022-07-25T11:05:37.194Z,32.41
2022-07-25T11:06:37.200Z,32.48
2022-07-25T11:07:37.214Z,32.60
2022-07-25T11:08:37.206Z,32.70
2022-07-25T11:09:37.215Z,32.90
2022-07-25T11:10:37.217Z,32.85
2022-07-25T11:11:37.220Z,32.80
2022-07-25T11:12:37.222Z,32.78
2022-07-25T11:13:37.230Z,32.70
2022-07-25T11:14:37.234Z,32.53
2022-07-25T11:15:37.244Z,32.55
2022-07-25T11:16:37.326Z,32.74
2022-07-25T11:17:37.242Z,32.70
2022-07-25T11:18:37.251Z,32.74
2022-07-25T11:19:37.250Z,32.74
2022-07-25T11:20:37.256Z,32.78
2022-07-25T11:21:37.262Z,32.80
2022-07-25T11:22:37.267Z,32.85
2022-07-25T11:23:37.269Z,32.80
2022-07-25T11:24:37.278Z,32.87
2022-07-25T11:25:37.280Z,32.80
2022-07-25T11:26:37.285Z,32.75
2022-07-25T11:27:37.288Z,32.70
2022-07-25T11:28:37.293Z,32.75
2022-07-25T11:29:37.297Z,32.74
2022-07-25T11:30:37.305Z,32.89
2022-07-25T11:31:37.339Z,33.02
2022-07-25T11:32:37.314Z,33.14
2022-07-25T11:33:38.871Z,33.23
2022-07-25T11:34:37.344Z,33.42
2022-07-25T11:35:37.328Z,33.43
2022-07-25T11:36:37.331Z,33.58
2022-07-25T11:37:37.337Z,33.64
2022-07-25T11:38:37.341Z,33.58
2022-07-25T11:39:37.347Z,33.52
2022-07-25T11:40:37.348Z,33.55
2022-07-25T11:41:37.358Z,33.64
2022-07-25T11:42:37.361Z,33.52
2022-07-25T11:43:37.367Z,33.67
2022-07-25T11:44:37.376Z,33.69
2022-07-25T11:45:37.465Z,33.83
2022-07-25T11:46:37.445Z,33.89
2022-07-25T11:47:37.384Z,33.92
2022-07-25T11:48:37.448Z,33.95
2022-07-25T11:49:37.393Z,33.96
2022-07-25T11:50:37.402Z,33.92
2022-07-25T11:51:37.403Z,33.92
2022-07-25T11:52:37.406Z,34.01
2022-07-25T11:53:37.410Z,33.99
2022-07-25T11:54:37.420Z,34.06
2022-07-25T11:55:37.425Z,34.14
2022-07-25T11:56:42.853Z,34.08
2022-07-25T11:57:37.436Z,34.01
2022-07-25T11:58:37.444Z,34.13
2022-07-25T11:59:37.444Z,34.17
2022-07-25T12:00:37.453Z,34.17
2022-07-25T12:01:37.453Z,34.23
2022-07-25T12:02:37.589Z,34.40
2022-07-25T12:03:37.544Z,34.45
2022-07-25T12:04:37.466Z,34.51
2022-07-25T12:05:37.473Z,34.47
2022-07-25T12:06:37.480Z,34.45
2022-07-25T12:07:37.483Z,34.39
2022-07-25T12:08:37.487Z,34.54
2022-07-25T12:09:37.495Z,34.58
2022-07-25T12:10:37.500Z,34.73
2022-07-25T12:11:37.504Z,34.67
2022-07-25T12:12:37.510Z,34.75
2022-07-25T12:13:37.513Z,34.61
2022-07-25T12:14:37.521Z,34.54
2022-07-25T12:15:37.525Z,34.54
2022-07-25T12:16:37.607Z,34.54
2022-07-25T12:17:37.539Z,34.48
2022-07-25T12:18:37.540Z,34.32
2022-07-25T12:19:37.549Z,34.21
2022-07-25T12:20:37.554Z,34.17
2022-07-25T12:21:37.558Z,34.23
2022-07-25T12:22:37.564Z,34.02
2022-07-25T12:23:37.569Z,34.06
2022-07-25T12:24:37.580Z,34.06
2022-07-25T12:25:37.582Z,34.06
2022-07-25T12:26:37.587Z,33.98
2022-07-25T12:27:37.590Z,34.01
2022-07-25T12:28:37.600Z,33.98
2022-07-25T12:29:37.604Z,33.74
2022-07-25T12:30:37.674Z,33.67
2022-07-25T12:31:37.613Z,33.67
2022-07-25T12:32:37.618Z,33.73
2022-07-25T12:33:37.632Z,33.77
2022-07-25T12:34:37.631Z,33.89
2022-07-25T12:35:37.651Z,33.92
2022-07-25T12:36:37.639Z,33.90
2022-07-25T12:37:37.643Z,33.76
2022-07-25T12:38:37.651Z,33.58
2022-07-25T12:39:37.655Z,33.58
2022-07-25T12:40:37.663Z,33.52
2022-07-25T12:41:37.670Z,33.67
2022-07-25T12:42:37.680Z,33.92
2022-07-25T12:43:37.678Z,34.06
2022-07-25T12:44:37.679Z,34.21
2022-07-25T12:45:37.756Z,34.27
2022-07-25T12:46:37.691Z,34.51
2022-07-25T12:47:37.702Z,34.66
2022-07-25T12:48:37.757Z,34.77
2022-07-25T12:49:37.729Z,34.83
2022-07-25T12:50:37.713Z,34.92
2022-07-25T12:51:37.720Z,35.05
2022-07-25T12:52:37.724Z,35.02
2022-07-25T12:53:41.995Z,35.02
2022-07-25T12:54:37.735Z,35.00
2022-07-25T12:55:37.741Z,34.93
2022-07-25T12:56:37.741Z,34.90
2022-07-25T12:57:37.757Z,34.88
2022-07-25T12:58:37.763Z,34.81
2022-07-25T12:59:37.763Z,34.88
2022-07-25T13:00:37.784Z,34.67
2022-07-25T13:01:37.905Z,34.75
2022-07-25T13:02:37.832Z,34.80
2022-07-25T13:03:37.786Z,34.88
2022-07-25T13:04:37.785Z,34.96
2022-07-25T13:05:37.809Z,34.90
2022-07-25T13:06:38.866Z,34.97
2022-07-25T13:07:37.807Z,34.95
2022-07-25T13:08:37.831Z,34.86
2022-07-25T13:09:37.819Z,34.89
2022-07-25T13:10:37.822Z,34.86
2022-07-25T13:11:37.828Z,34.88
2022-07-25T13:12:37.833Z,35.04
2022-07-25T13:13:37.845Z,34.99
2022-07-25T13:14:37.850Z,34.96
2022-07-25T13:15:37.857Z,35.00
2022-07-25T13:16:38.057Z,34.99
2022-07-25T13:17:37.868Z,35.02
2022-07-25T13:18:37.870Z,35.05
2022-07-25T13:19:37.878Z,35.07
2022-07-25T13:20:37.896Z,34.96